Portada
METAR-TAF:

METAR-TAF

Aeroports :

Bangalore, Índia

latitud: 13-11-56N, longitud: 077-42-20E, altitud: 915 m

Observació

L'informe es va fer fa 31 minuts, a les 23:00 UTC
Vent 11 kt del Oest
Temperatura 21°C
Humitat 100%
Pressió 1010 hPa
Visibilitat: 6000 m
Núvols disperses a una alçada de 800 ft
Núvols disperses a una alçada de 1200 ft

METAR: VOBL 082300Z 26011KT 6000 SCT008 SCT012 21/21 Q1010 NOSIG

Hora: 05:01 (23:31 UTC)

Pronòstic

L'informe es va fer fa 3 hores i 31 minuts, a les 20:00 UTC
Pronòstic vàlid del 08 a les 21 UTC al 09 a les 06 UTC
Vent 10 kt del Oest/Sud-Oest
Visibilitat: 6000 m
Núvols disperses a una alçada de 1200 ft
Núvols disperses a una alçada de 8000 ft
Temporalment
l' 08 a les 22 UTC al 09 a les 03 UTC
Visibilitat: 4000 m
Cel ennuvolat a una alçada de 800 ft
Núvols disperses a una alçada de 1200 ft
boirina

TAF: VOBL 082000Z 0821/0906 25010KT 6000 SCT012 SCT080 TEMPO 0822/0903 4000 BR BKN008 SCT012

Observacions i pronòstics meteorològics de més de 4000 aeroports (METAR i TAF).

Les estacions disponibles són els punts grocs i vermells al mapa.

Posi el ratolí al punt desitjat per veure el nom de l'estació.

Feu clic per veure les observacions i els pronòstics meteorològics.

Per canviar el mapa: feu clic els botons verds amb una creu de color negre per apropar; al botó verd amb un guió per allunyar la imatge; o en les fletxes verdes per a mapes adjacents.


METAR-TAF: